createdAt,value
2019-04-10T00:01:28.054Z,94633.67
2019-04-10T00:03:56.823Z,94635.84
2019-04-10T00:06:25.822Z,94640.13
2019-04-10T00:08:54.787Z,94632.10
2019-04-10T00:11:24.818Z,94634.28
2019-04-10T00:13:53.560Z,94639.44
2019-04-10T00:16:22.471Z,94632.30
2019-04-10T00:18:51.181Z,94642.13
2019-04-10T00:21:20.889Z,94649.77
2019-04-10T00:23:49.947Z,94650.25
2019-04-10T00:26:18.552Z,94641.80
2019-04-10T00:28:47.731Z,94646.95
2019-04-10T00:31:16.524Z,94644.41
2019-04-10T00:33:45.170Z,94643.18
2019-04-10T00:36:14.150Z,94643.64
2019-04-10T00:38:42.726Z,94638.59
2019-04-10T00:41:12.111Z,94637.78
2019-04-10T00:43:41.523Z,94635.29
2019-04-10T00:46:10.447Z,94640.00
2019-04-10T00:48:39.752Z,94641.34
2019-04-10T00:51:08.889Z,94644.38
2019-04-10T00:53:37.902Z,94643.56
2019-04-10T00:56:06.363Z,94649.55
2019-04-10T00:58:35.317Z,94647.49
2019-04-10T01:01:05.514Z,94645.00
2019-04-10T01:03:43.669Z,94643.34
2019-04-10T01:06:14.418Z,94643.79
2019-04-10T01:08:43.023Z,94645.90
2019-04-10T01:11:11.757Z,94645.11
2019-04-10T01:13:41.092Z,94640.08
2019-04-10T01:16:09.970Z,94632.95
2019-04-10T01:18:39.502Z,94642.73
2019-04-10T01:21:08.435Z,94638.13
2019-04-10T01:23:38.002Z,94648.36
2019-04-10T01:26:07.241Z,94645.86
2019-04-10T01:28:36.673Z,94642.53
2019-04-10T01:31:06.652Z,94642.97
2019-04-10T01:33:36.725Z,94645.91
2019-04-10T01:36:05.606Z,94647.66
2019-04-10T01:38:34.222Z,94648.98
2019-04-10T01:41:03.615Z,94650.73
2019-04-10T01:43:32.984Z,94649.91
2019-04-10T01:46:02.101Z,94651.70
2019-04-10T01:48:34.436Z,94643.28
2019-04-10T01:51:03.260Z,94649.23
2019-04-10T01:53:31.734Z,94650.55
2019-04-10T01:56:00.301Z,94653.09
2019-04-10T01:58:29.436Z,94647.61
2019-04-10T02:01:03.872Z,94646.34
2019-04-10T02:03:32.722Z,94652.77
2019-04-10T02:06:01.392Z,94643.88
2019-04-10T02:08:29.935Z,94650.27
2019-04-10T02:10:58.692Z,94646.92
2019-04-10T02:13:27.651Z,94649.91
2019-04-10T02:15:56.710Z,94657.52
2019-04-10T02:18:25.555Z,94660.13
2019-04-10T02:20:54.108Z,94654.61
2019-04-10T02:23:22.664Z,94658.45
2019-04-10T02:25:51.183Z,94656.38
2019-04-10T02:28:20.708Z,94660.19
2019-04-10T02:30:50.206Z,94660.22
2019-04-10T02:33:18.869Z,94655.56
2019-04-10T02:35:47.870Z,94658.97
2019-04-10T02:38:37.347Z,94659.43
2019-04-10T02:40:47.627Z,94656.89
2019-04-10T02:43:16.454Z,94655.22
2019-04-10T02:45:44.951Z,94651.84
2019-04-10T02:48:14.913Z,94653.98
2019-04-10T02:50:44.892Z,94656.92
2019-04-10T02:53:15.325Z,94655.65
2019-04-10T02:55:43.956Z,94654.84
2019-04-10T02:58:14.081Z,94659.05
2019-04-10T03:00:44.186Z,94656.95
2019-04-10T03:03:13.817Z,94655.67
2019-04-10T03:05:42.857Z,94656.08
2019-04-10T03:08:13.258Z,94667.95
2019-04-10T03:10:49.615Z,94662.48
2019-04-10T03:13:13.728Z,94665.44
2019-04-10T03:15:43.478Z,94658.72
2019-04-10T03:18:12.698Z,94663.80
2019-04-10T03:20:42.610Z,94668.44
2019-04-10T03:23:11.644Z,94667.20
2019-04-10T03:25:41.416Z,94662.95
2019-04-10T03:28:11.157Z,94663.81
2019-04-10T03:30:41.561Z,94661.70
2019-04-10T03:33:18.385Z,94664.70
2019-04-10T03:35:45.103Z,94666.80
2019-04-10T03:38:14.778Z,94663.00
2019-04-10T03:40:43.736Z,94677.36
2019-04-10T03:43:12.458Z,94676.92
2019-04-10T03:45:41.158Z,94679.05
2019-04-10T03:48:09.748Z,94677.81
2019-04-10T03:50:38.286Z,94680.32
2019-04-10T03:53:07.581Z,94680.34
2019-04-10T03:55:36.856Z,94677.80
2019-04-10T03:58:05.487Z,94674.00
2019-04-10T04:00:34.297Z,94671.03
2019-04-10T04:03:02.941Z,94671.45
2019-04-10T04:05:31.505Z,94679.88
2019-04-10T04:08:01.206Z,94685.36
2019-04-10T04:10:30.766Z,94688.28
2019-04-10T04:13:00.194Z,94689.14
2019-04-10T04:15:30.225Z,94692.11
2019-04-10T04:18:00.253Z,94698.01
2019-04-10T04:20:29.103Z,94701.41
2019-04-10T04:22:57.725Z,94694.20
2019-04-10T04:25:26.191Z,94689.09
2019-04-10T04:27:54.760Z,94687.42
2019-04-10T04:30:23.369Z,94692.94
2019-04-10T04:32:51.951Z,94689.96
2019-04-10T04:35:20.491Z,94694.61
2019-04-10T04:37:49.044Z,94695.45
2019-04-10T04:40:17.582Z,94699.25
2019-04-10T04:42:47.126Z,94703.87
2019-04-10T04:45:15.961Z,94709.36
2019-04-10T04:47:44.572Z,94703.02
2019-04-10T04:50:13.186Z,94703.87
2019-04-10T04:52:41.681Z,94703.89
2019-04-10T04:55:10.586Z,94708.12
2019-04-10T04:57:40.667Z,94710.67
2019-04-10T05:00:10.687Z,94711.52
2019-04-10T05:02:39.269Z,94713.62
2019-04-10T05:05:08.772Z,94716.57
2019-04-10T05:07:37.655Z,94714.01
2019-04-10T05:10:09.004Z,94719.48
2019-04-10T05:12:38.076Z,94710.17
2019-04-10T05:15:09.423Z,94716.12
2019-04-10T05:17:37.807Z,94715.27
2019-04-10T05:20:07.413Z,94719.49
2019-04-10T05:22:36.001Z,94713.98
2019-04-10T05:25:06.842Z,94728.38
2019-04-10T05:27:35.519Z,94724.56
2019-04-10T05:30:06.275Z,94732.61
2019-04-10T05:32:35.395Z,94730.08
2019-04-10T05:35:07.404Z,94728.81
2019-04-10T05:37:35.895Z,94724.57
2019-04-10T05:40:07.682Z,94727.92
2019-04-10T05:42:37.423Z,94728.78
2019-04-10T05:45:07.406Z,94725.36
2019-04-10T05:47:36.607Z,94727.88
2019-04-10T05:50:06.518Z,94724.45
2019-04-10T05:52:35.365Z,94733.34
2019-04-10T05:55:04.636Z,94736.30
2019-04-10T05:57:33.178Z,94732.44
2019-04-10T06:00:02.734Z,94737.50
2019-04-10T06:02:32.129Z,94740.47
2019-04-10T06:05:02.357Z,94737.50
2019-04-10T06:07:31.056Z,94742.11
2019-04-10T06:10:04.828Z,94748.06
2019-04-10T06:12:30.897Z,94741.70
2019-04-10T06:14:59.517Z,94751.00
2019-04-10T06:17:28.044Z,94758.66
2019-04-10T06:19:56.742Z,94769.66
2019-04-10T06:22:26.430Z,94763.73
2019-04-10T06:24:55.125Z,94756.09
2019-04-10T06:27:24.221Z,94761.59
2019-04-10T06:29:53.196Z,94761.16
2019-04-10T06:32:22.204Z,94757.38
2019-04-10T06:34:50.878Z,94765.46
2019-04-10T06:37:19.525Z,94760.86
2019-04-10T06:39:49.017Z,94758.34
2019-04-10T06:42:17.841Z,94763.88
2019-04-10T06:44:46.454Z,94771.50
2019-04-10T06:47:15.080Z,94765.13
2019-04-10T06:49:43.957Z,94770.18
2019-04-10T06:52:12.496Z,94767.20
2019-04-10T06:54:41.038Z,94764.69
2019-04-10T06:57:10.450Z,94770.61
2019-04-10T06:59:41.965Z,94771.50
2019-04-10T07:02:20.315Z,94777.82
2019-04-10T07:04:46.024Z,94774.83
2019-04-10T07:07:13.723Z,94773.13
2019-04-10T07:09:40.620Z,94773.13
2019-04-10T07:12:10.079Z,94772.72
2019-04-10T07:14:40.950Z,94768.50
2019-04-10T07:17:10.571Z,94773.16
2019-04-10T07:19:41.478Z,94773.08
2019-04-10T07:22:12.487Z,94767.95
2019-04-10T07:24:42.519Z,94765.78
2019-04-10T07:27:10.410Z,94768.73
2019-04-10T07:29:39.022Z,94763.59
2019-04-10T07:32:09.639Z,94767.34
2019-04-10T07:34:38.016Z,94765.20
2019-04-10T07:37:07.955Z,94768.98
2019-04-10T07:39:37.488Z,94768.14
2019-04-10T07:42:06.295Z,94767.34
2019-04-10T07:44:34.820Z,94779.61
2019-04-10T07:47:03.395Z,94772.80
2019-04-10T07:49:32.988Z,94773.95
2019-04-10T07:52:02.444Z,94777.27
2019-04-10T07:54:33.057Z,94783.58
2019-04-10T07:57:02.200Z,94787.36
2019-04-10T07:59:31.286Z,94786.88
2019-04-10T08:02:00.142Z,94789.39
2019-04-10T08:04:29.071Z,94798.29
2019-04-10T08:06:58.736Z,94795.34
2019-04-10T08:09:27.540Z,94794.91
2019-04-10T08:11:56.695Z,94799.05
2019-04-10T08:14:27.424Z,94793.87
2019-04-10T08:16:57.316Z,94791.27
2019-04-10T08:19:27.583Z,94789.65
2019-04-10T08:21:56.919Z,94786.59
2019-04-10T08:24:25.941Z,94786.45
2019-04-10T08:26:54.837Z,94788.05
2019-04-10T08:29:23.917Z,94790.55
2019-04-10T08:31:52.823Z,94786.78
2019-04-10T08:34:21.671Z,94783.24
2019-04-10T08:36:52.678Z,94778.05
2019-04-10T08:39:32.401Z,94777.28
2019-04-10T08:41:52.144Z,94770.13
2019-04-10T08:44:20.770Z,94773.94
2019-04-10T08:46:50.334Z,94771.95
2019-04-10T08:49:18.950Z,94774.50
2019-04-10T08:51:47.932Z,94767.64
2019-04-10T08:54:16.776Z,94776.67
2019-04-10T08:56:45.409Z,94770.05
2019-04-10T08:59:13.956Z,94779.66
2019-04-10T09:01:42.587Z,94773.55
2019-04-10T09:04:11.192Z,94774.36
2019-04-10T09:06:39.850Z,94769.44
2019-04-10T09:09:09.653Z,94766.32
2019-04-10T09:11:38.795Z,94772.02
2019-04-10T09:14:08.571Z,94760.52
2019-04-10T09:16:38.485Z,94774.27
2019-04-10T09:19:07.286Z,94768.54
2019-04-10T09:21:35.936Z,94765.06
2019-04-10T09:24:04.760Z,94760.79
2019-04-10T09:26:33.579Z,94758.88
2019-04-10T09:29:02.547Z,94757.83
2019-04-10T09:31:31.606Z,94760.74
2019-04-10T09:34:01.990Z,94761.59
2019-04-10T09:36:30.645Z,94757.41
2019-04-10T09:38:59.269Z,94760.74
2019-04-10T09:41:29.807Z,94761.85
2019-04-10T09:43:58.549Z,94757.81
2019-04-10T09:46:27.160Z,94770.42
2019-04-10T09:48:56.208Z,94757.93
2019-04-10T09:51:25.598Z,94770.08
2019-04-10T09:53:54.428Z,94769.80
2019-04-10T09:56:23.092Z,94768.08
2019-04-10T09:58:51.948Z,94763.25
2019-04-10T10:01:21.949Z,94767.45
2019-04-10T10:03:50.912Z,94778.95
2019-04-10T10:06:27.341Z,94785.84
2019-04-10T10:08:50.237Z,94778.44
2019-04-10T10:11:18.884Z,94775.80
2019-04-10T10:13:48.235Z,94784.97
2019-04-10T10:16:17.183Z,94767.42
2019-04-10T10:18:45.895Z,94771.09
2019-04-10T10:21:14.539Z,94763.39
2019-04-10T10:23:44.384Z,94773.79
2019-04-10T10:26:13.430Z,94775.11
2019-04-10T10:28:42.939Z,94769.31
2019-04-10T10:31:11.697Z,94771.42
2019-04-10T10:33:40.182Z,94772.61
2019-04-10T10:36:08.724Z,94775.72
2019-04-10T10:38:37.332Z,94769.41
2019-04-10T10:41:06.740Z,94776.80
2019-04-10T10:43:36.291Z,94768.45
2019-04-10T10:46:07.223Z,94776.65
2019-04-10T10:48:36.029Z,94772.19
2019-04-10T10:51:04.681Z,94777.44
2019-04-10T10:53:34.265Z,94767.45
2019-04-10T10:56:04.223Z,94757.17
2019-04-10T10:58:33.128Z,94763.19
2019-04-10T11:01:01.736Z,94754.84
2019-04-10T11:03:30.368Z,94758.86
2019-04-10T11:05:58.978Z,94763.19
2019-04-10T11:08:27.582Z,94747.33
2019-04-10T11:10:57.566Z,94758.94
2019-04-10T11:13:26.647Z,94768.82
2019-04-10T11:15:56.242Z,94773.78
2019-04-10T11:18:24.982Z,94756.73
2019-04-10T11:20:59.321Z,94750.45
2019-04-10T11:23:28.346Z,94749.42
2019-04-10T11:25:57.684Z,94752.75
2019-04-10T11:28:30.186Z,94764.35
2019-04-10T11:30:56.991Z,94765.02
2019-04-10T11:33:26.337Z,94772.89
2019-04-10T11:35:55.265Z,94759.53
2019-04-10T11:38:25.890Z,94764.91
2019-04-10T11:40:57.396Z,94763.85
2019-04-10T11:43:26.087Z,94749.28
2019-04-10T11:45:58.513Z,94751.73
2019-04-10T11:48:27.937Z,94756.55
2019-04-10T11:53:27.212Z,94755.61
2019-04-10T11:56:00.312Z,94758.39
2019-04-10T11:58:28.972Z,94756.36
2019-04-10T12:00:59.610Z,94749.42
2019-04-10T12:03:28.318Z,94744.11
2019-04-10T12:05:59.557Z,94751.50
2019-04-10T12:08:51.719Z,94744.82
2019-04-10T12:13:27.722Z,94744.92
2019-04-10T12:15:56.784Z,94738.81
2019-04-10T12:18:26.640Z,94749.00
2019-04-10T12:20:55.688Z,94748.05
2019-04-10T12:23:25.109Z,94742.53
2019-04-10T12:25:53.991Z,94752.94
2019-04-10T12:28:22.729Z,94743.18
2019-04-10T12:30:51.349Z,94738.14
2019-04-10T12:33:21.208Z,94745.08
2019-04-10T12:35:50.158Z,94740.43
2019-04-10T12:38:19.330Z,94730.02
2019-04-10T12:40:48.183Z,94738.34
2019-04-10T12:43:16.827Z,94740.27
2019-04-10T12:45:46.530Z,94737.77
2019-04-10T12:48:16.605Z,94732.60
2019-04-10T12:50:45.390Z,94739.39
2019-04-10T12:53:13.984Z,94737.65
2019-04-10T12:55:43.743Z,94736.77
2019-04-10T12:58:16.199Z,94738.36
2019-04-10T13:00:42.994Z,94741.41
2019-04-10T13:03:11.573Z,94740.30
2019-04-10T13:05:41.155Z,94743.25
2019-04-10T13:08:17.815Z,94750.42
2019-04-10T13:10:40.499Z,94746.54
2019-04-10T13:13:09.523Z,94753.35
2019-04-10T13:15:39.341Z,94753.55
2019-04-10T13:18:08.963Z,94755.39
2019-04-10T13:20:37.893Z,94753.30
2019-04-10T13:23:06.682Z,94747.38
2019-04-10T13:25:36.642Z,94762.31
2019-04-10T13:28:05.532Z,94755.47
2019-04-10T13:30:44.766Z,94753.35
2019-04-10T13:33:05.343Z,94755.55
2019-04-10T13:35:35.440Z,94759.41
2019-04-10T13:38:05.172Z,94761.20
2019-04-10T13:40:33.710Z,94756.45
2019-04-10T13:43:03.272Z,94755.61
2019-04-10T13:45:32.163Z,94757.66
2019-04-10T13:48:00.905Z,94760.55
2019-04-10T13:50:30.691Z,94758.44
2019-04-10T13:52:59.681Z,94761.64
2019-04-10T13:55:28.507Z,94759.11
2019-04-10T13:57:57.218Z,94757.20
2019-04-10T14:00:39.545Z,94757.58
2019-04-10T14:03:06.964Z,94763.16
2019-04-10T14:05:36.948Z,94758.13
2019-04-10T14:08:06.834Z,94759.95
2019-04-10T14:10:37.038Z,94758.19
2019-04-10T14:13:05.725Z,94754.67
2019-04-10T14:15:34.323Z,94750.71
2019-04-10T14:18:03.317Z,94760.95
2019-04-10T14:20:32.173Z,94762.35
2019-04-10T14:23:12.291Z,94754.20
2019-04-10T14:25:49.774Z,94749.42
2019-04-10T14:28:21.869Z,94759.96
2019-04-10T14:30:51.603Z,94758.33
2019-04-10T14:33:21.285Z,94772.16
2019-04-10T14:35:50.277Z,94759.56
2019-04-10T14:38:19.032Z,94755.81
2019-04-10T14:40:49.185Z,94751.20
2019-04-10T14:43:18.739Z,94758.78
2019-04-10T14:45:48.039Z,94758.58
2019-04-10T14:48:20.176Z,94758.28
2019-04-10T14:50:49.232Z,94759.18
2019-04-10T14:53:17.786Z,94765.69
2019-04-10T14:55:46.399Z,94765.83
2019-04-10T14:58:23.962Z,94765.66
2019-04-10T15:00:49.515Z,94765.92
2019-04-10T15:03:20.256Z,94762.94
2019-04-10T15:05:51.435Z,94764.12
2019-04-10T15:08:19.690Z,94767.81
2019-04-10T15:10:48.283Z,94769.16
2019-04-10T15:13:20.979Z,94767.19
2019-04-10T15:15:48.279Z,94780.01
2019-04-10T15:18:17.039Z,94788.49
2019-04-10T15:20:45.726Z,94789.03
2019-04-10T15:23:15.403Z,94786.61
2019-04-10T15:25:44.270Z,94799.30
2019-04-10T15:28:13.965Z,94790.44
2019-04-10T15:30:42.669Z,94790.45
2019-04-10T15:33:12.146Z,94787.52
2019-04-10T15:35:41.766Z,94794.64
2019-04-10T15:38:11.722Z,94788.27
2019-04-10T15:40:40.495Z,94791.38
2019-04-10T15:43:09.055Z,94793.43
2019-04-10T15:45:39.962Z,94796.43
2019-04-10T15:48:10.485Z,94798.53
2019-04-10T15:50:39.521Z,94793.00
2019-04-10T15:53:09.638Z,94800.69
2019-04-10T15:55:38.473Z,94795.22
2019-04-10T15:58:08.632Z,94790.56
2019-04-10T16:00:37.420Z,94800.81
2019-04-10T16:03:06.053Z,94788.17
2019-04-10T16:05:34.650Z,94790.73
2019-04-10T16:08:03.302Z,94797.53
2019-04-10T16:10:33.947Z,94795.48
2019-04-10T16:13:14.458Z,94810.31
2019-04-10T16:15:44.923Z,94804.00
2019-04-10T16:18:15.697Z,94812.52
2019-04-10T16:20:45.877Z,94804.50
2019-04-10T16:23:27.497Z,94808.75
2019-04-10T16:25:55.463Z,94809.98
2019-04-10T16:28:24.029Z,94818.95
2019-04-10T16:30:52.921Z,94818.55
2019-04-10T16:33:21.577Z,94820.70
2019-04-10T16:35:50.218Z,94822.81
2019-04-10T16:38:18.822Z,94823.25
2019-04-10T16:40:47.989Z,94828.78
2019-04-10T16:43:16.958Z,94833.05
2019-04-10T16:45:46.790Z,94833.53
2019-04-10T16:48:16.907Z,94826.78
2019-04-10T16:50:46.035Z,94827.22
2019-04-10T16:53:14.653Z,94831.55
2019-04-10T16:55:43.293Z,94834.54
2019-04-10T16:58:11.978Z,94824.41
2019-04-10T17:00:41.701Z,94830.33
2019-04-10T17:03:11.574Z,94834.55
2019-04-10T17:05:41.741Z,94844.76
2019-04-10T17:08:10.410Z,94846.14
2019-04-10T17:10:39.260Z,94842.41
2019-04-10T17:13:08.923Z,94842.81
2019-04-10T17:15:37.967Z,94852.18
2019-04-10T17:18:06.771Z,94847.16
2019-04-10T17:20:36.197Z,94847.59
2019-04-10T17:23:06.570Z,94853.12
2019-04-10T17:25:35.976Z,94854.80
2019-04-10T17:28:04.791Z,94856.91
2019-04-10T17:30:35.895Z,94856.06
2019-04-10T17:33:06.752Z,94859.44
2019-04-10T17:35:35.950Z,94867.51
2019-04-10T17:38:04.916Z,94867.94
2019-04-10T17:40:43.344Z,94864.16
2019-04-10T17:43:05.324Z,94865.05
2019-04-10T17:45:34.364Z,94868.06
2019-04-10T17:48:03.437Z,94873.98
2019-04-10T17:50:32.242Z,94868.52
2019-04-10T17:53:01.218Z,94875.77
2019-04-10T17:55:29.765Z,94881.72
2019-04-10T17:57:58.458Z,94885.94
2019-04-10T18:00:29.310Z,94885.94
2019-04-10T18:02:59.130Z,94888.50
2019-04-10T18:05:28.794Z,94890.62
2019-04-10T18:07:58.676Z,94893.56
2019-04-10T18:10:39.575Z,94895.30
2019-04-10T18:12:58.918Z,94893.58
2019-04-10T18:15:28.300Z,94892.34
2019-04-10T18:17:57.658Z,94898.71
2019-04-10T18:20:26.308Z,94898.28
2019-04-10T18:22:55.391Z,94897.88
2019-04-10T18:25:24.106Z,94897.44
2019-04-10T18:27:52.745Z,94896.19
2019-04-10T18:30:21.683Z,94902.56
2019-04-10T18:32:50.399Z,94911.86
2019-04-10T18:35:19.009Z,94912.30
2019-04-10T18:37:48.052Z,94915.27
2019-04-10T18:40:19.014Z,94917.37
2019-04-10T18:42:47.807Z,94932.59
2019-04-10T18:45:17.521Z,94927.56
2019-04-10T18:47:46.490Z,94930.94
2019-04-10T18:50:16.141Z,94931.80
2019-04-10T18:52:45.609Z,94928.84
2019-04-10T18:55:14.349Z,94933.48
2019-04-10T18:57:43.211Z,94928.44
2019-04-10T19:00:18.640Z,94932.24
2019-04-10T19:02:55.261Z,94941.53
2019-04-10T19:05:28.306Z,94944.50
2019-04-10T19:07:57.171Z,94944.10
2019-04-10T19:10:26.411Z,94942.40
2019-04-10T19:12:55.038Z,94944.09
2019-04-10T19:15:24.421Z,94939.87
2019-04-10T19:17:53.465Z,94946.20
2019-04-10T19:20:22.864Z,94944.95
2019-04-10T19:22:52.785Z,94946.63
2019-04-10T19:25:22.655Z,94950.02
2019-04-10T19:27:52.636Z,94946.22
2019-04-10T19:30:29.382Z,94942.40
2019-04-10T19:32:57.932Z,94943.67
2019-04-10T19:35:26.743Z,94944.52
2019-04-10T19:37:56.667Z,94937.33
2019-04-10T19:40:25.563Z,94934.81
2019-04-10T19:42:54.436Z,94937.75
2019-04-10T19:45:23.736Z,94942.41
2019-04-10T19:47:52.826Z,94945.38
2019-04-10T19:50:21.599Z,94939.88
2019-04-10T19:52:50.777Z,94940.31
2019-04-10T19:55:19.876Z,94937.34
2019-04-10T19:57:48.450Z,94933.11
2019-04-10T20:00:20.000Z,94936.91
2019-04-10T20:02:49.061Z,94931.43
2019-04-10T20:05:17.689Z,94927.61
2019-04-10T20:07:46.234Z,94927.18
2019-04-10T20:10:15.184Z,94936.50
2019-04-10T20:12:44.684Z,94933.96
2019-04-10T20:15:14.113Z,94934.40
2019-04-10T20:17:42.882Z,94935.65
2019-04-10T20:20:13.083Z,94930.55
2019-04-10T20:22:43.924Z,94936.05
2019-04-10T20:25:14.371Z,94936.91
2019-04-10T20:27:42.982Z,94941.97
2019-04-10T20:30:12.072Z,94943.24
2019-04-10T20:32:41.875Z,94943.22
2019-04-10T20:35:11.932Z,94945.77
2019-04-10T20:37:40.488Z,94943.23
2019-04-10T20:40:09.691Z,94938.97
2019-04-10T20:42:38.355Z,94938.54
2019-04-10T20:45:07.519Z,94936.02
2019-04-10T20:47:37.214Z,94946.16
2019-04-10T20:50:07.884Z,94947.45
2019-04-10T20:52:39.415Z,94950.40
2019-04-10T20:55:07.335Z,94957.20
2019-04-10T20:57:35.909Z,94953.38
2019-04-10T21:00:07.974Z,94956.34
2019-04-10T21:02:36.583Z,94963.52
2019-04-10T21:05:09.817Z,94954.20
2019-04-10T21:07:37.562Z,94954.20
2019-04-10T21:10:08.637Z,94955.04
2019-04-10T21:12:37.433Z,94958.42
2019-04-10T21:15:06.952Z,94957.17
2019-04-10T21:17:35.475Z,94955.49
2019-04-10T21:20:08.058Z,94953.36
2019-04-10T21:22:36.643Z,94963.09
2019-04-10T21:25:06.577Z,94958.45
2019-04-10T21:27:35.553Z,94965.20
2019-04-10T21:30:15.769Z,94963.94
2019-04-10T21:33:02.336Z,94957.19
2019-04-10T21:35:35.075Z,94961.41
2019-04-10T21:38:04.807Z,94952.95
2019-04-10T21:40:34.749Z,94961.42
2019-04-10T21:43:04.085Z,94952.94
2019-04-10T21:45:34.998Z,94948.29
2019-04-10T21:48:03.844Z,94947.00
2019-04-10T21:50:33.324Z,94951.66
2019-04-10T21:53:01.897Z,94953.36
2019-04-10T21:55:31.129Z,94959.28
2019-04-10T21:58:00.024Z,94952.94
2019-04-10T22:00:33.348Z,94950.39
2019-04-10T22:03:02.863Z,94953.38
2019-04-10T22:05:34.573Z,94953.77
2019-04-10T22:08:11.017Z,94956.77
2019-04-10T22:10:41.939Z,94947.04
2019-04-10T22:13:11.352Z,94953.82
2019-04-10T22:15:41.851Z,94946.60
2019-04-10T22:18:10.454Z,94952.14
2019-04-10T22:20:39.618Z,94954.23
2019-04-10T22:23:09.704Z,94944.94
2019-04-10T22:25:39.537Z,94944.95
2019-04-10T22:28:08.379Z,94944.95
2019-04-10T22:30:37.173Z,94943.23
2019-04-10T22:33:06.224Z,94941.54
2019-04-10T22:35:35.679Z,94942.40
2019-04-10T22:38:04.852Z,94942.83
2019-04-10T22:40:33.483Z,94941.55
2019-04-10T22:43:03.274Z,94940.28
2019-04-10T22:45:32.870Z,94941.13
2019-04-10T22:48:01.552Z,94935.62
2019-04-10T22:50:31.062Z,94935.64
2019-04-10T22:53:01.226Z,94935.23
2019-04-10T22:55:31.716Z,94939.88
2019-04-10T22:58:00.424Z,94932.69
2019-04-10T23:00:32.740Z,94928.04
2019-04-10T23:03:03.134Z,94930.16
2019-04-10T23:05:32.476Z,94928.03
2019-04-10T23:08:01.307Z,94922.52
2019-04-10T23:10:31.610Z,94927.59
2019-04-10T23:13:04.853Z,94921.66
2019-04-10T23:15:31.427Z,94922.96
2019-04-10T23:18:01.296Z,94918.31
2019-04-10T23:20:30.162Z,94922.13
2019-04-10T23:22:58.934Z,94921.69
2019-04-10T23:25:28.633Z,94927.17
2019-04-10T23:27:57.513Z,94929.28
2019-04-10T23:30:26.733Z,94914.91
2019-04-10T23:32:55.534Z,94923.78
2019-04-10T23:35:25.341Z,94922.11
2019-04-10T23:37:55.111Z,94929.72
2019-04-10T23:40:25.016Z,94924.66
2019-04-10T23:43:06.827Z,94925.05
2019-04-10T23:45:24.233Z,94924.20
2019-04-10T23:47:53.003Z,94923.80
2019-04-10T23:50:21.846Z,94923.81
2019-04-10T23:52:50.413Z,94923.80
2019-04-10T23:55:19.055Z,94920.00
2019-04-10T23:57:47.602Z,94917.05
